首页
METAR-TAF:

METAR-TAF

机场 :

勒图凯巴黎普拉日, 法国

纬度: 50-30-53N, 经度: 001-37-39E, 海拔: 6米

当前天气观测

该预报发布于21分钟前的14:30 UTC
风速17节,风向西,在西南西转西北之间变化
温度 12°C
湿度 88%
气压 1018 hPa
能見度: 9000
阴天层高于700英尺

METAR: LFAT 231430Z AUTO 26017KT 230V300 9000 OVC007 12/10 Q1018 TEMPO 24025G45KT 2000 RADZ OVC003

时间: 15:51 (14:51 UTC)

预报

该预报发布于3小时和51分钟前的11:00 UTC
预报有效从23日的 12点(UTC)到 23日的 21点(UTC)
风速20节,风向西转西南,有时为35节阵风
能见度10公里或以上
阴天层高于800英尺
短暂存在
从 23日的 12点(UTC)到 23日的 17点(UTC)
风速25节,风向西转西南,有时为45节阵风
能見度: 2000
阴天层高于300英尺
雨, 毛毛雨
从 23日的 1700点(UTC)
风速20节,风向西,有时为30节阵风
能见度10公里或以上
多云层高于2500英尺
成为
从 23日的 19点(UTC)到 23日的 21点(UTC)
风速5节,风向北转西北

TAF: LFAT 231100Z 2312/2321 24020G35KT 9999 OVC008 TEMPO 2312/2317 24025G45KT 2000 RADZ OVC003 FM231700 27020G30KT 9999 BKN025 BECMG 2319/2321 34005KT

超过4000个机场的气象观测和天气预报(METAR&TAF报告)。

可查询的气象台以黄色和红色小点在地图上表示。

将鼠标移到小点上方,可查看气象台名称。

然后点击查看天气观测和预报。

如需切换地图:点击带黑十字的绿色按钮放大地图;点击带横线的绿色按钮缩小地图;或者点击绿色箭头查看邻近地区的地图。


METAR-TAF: